Flight Track Log - Related Links

Times and Time Zones

All times are in EST time to prevent confusion due to time zone crossing. See the SWA245 flight status page for this flight to view local times or setup timezone preferences in your user account.

Time Position Orientation Groundspeed Altitude Reporting Facility
EST Latitude Longitude Course Direction KTS MPH feet Rate Location/Type
Mon 07:14:46 AM 26.0750 -80.1389 89° East 116 133 1,000  Level Miami Center
Mon 07:15:17 AM 26.0756 -80.1136 89° East 161 185 1,800 1,421 Climbing Miami Center
Mon 07:16:02 AM 26.0808 -80.0650 83° East 200 230 2,800 1,657 Climbing Miami Center
Mon 07:17:02 AM 26.1031 -80.0008 69° East 233 268 4,700 2,700 Climbing Miami Center
Mon 07:18:02 AM 26.1400 -79.9256 61° Northeast 255 293 8,200 3,100 Climbing Miami Center
Mon 07:19:02 AM 26.1772 -79.8431 63° Northeast 277 319 10,900 2,700 Climbing Miami Center
Mon 07:20:02 AM 26.2253 -79.7472 61° Northeast 315 362 13,600 2,950 Climbing Miami Center
Mon 07:21:02 AM 26.2756 -79.6325 64° Northeast 344 396 16,800 2,900 Climbing Miami Center
Mon 07:22:02 AM 26.3419 -79.5344 53° Northeast 390 449 19,400 2,350 Climbing Miami Center
Mon 07:23:02 AM 26.4128 -79.4269 54° Northeast 402 463 21,500 2,050 Climbing Miami Center
Mon 07:24:02 AM 26.4858 -79.3172 53° Northeast 428 493 23,500 1,850 Climbing Miami Center
Mon 07:25:02 AM 26.5542 -79.2208 52° Northeast 433 498 25,200 1,700 Climbing Miami Center
Mon 07:26:02 AM 26.6353 -79.1181 49° Northeast 438 504 26,900 1,700 Climbing Miami Center
Mon 07:27:02 AM 26.7611 -79.0903 11° North 418 481 28,600 1,600 Climbing Miami Center
Mon 07:28:02 AM 26.8847 -79.0600 12° North 431 496 30,100 1,800 Climbing Miami Center
Mon 07:29:02 AM 27.0144 -79.0367 North 445 512 32,200 2,300 Climbing Miami Center
Mon 07:30:02 AM 27.1467 -79.0042 12° North 446 513 34,700 1,850 Climbing Miami Center
Mon 07:31:02 AM 27.2703 -78.9783 11° North 446 513 35,900 1,450 Climbing Miami Center
Mon 07:32:02 AM 27.3792 -78.9547 11° North 439 505 37,600 1,550 Climbing Miami Center
Mon 07:33:02 AM 27.4944 -78.9358 North 425 489 39,000 700 Climbing Miami Center
Mon 07:34:02 AM 27.6197 -78.9192 North 415 478 39,000  Level Miami Center
Mon 07:35:02 AM 27.7308 -78.9025 North 408 470 39,000  Level Miami Center
Mon 07:36:02 AM 27.8458 -78.8881 North 408 470 39,000  Level Miami Center
Mon 07:37:02 AM 27.9461 -78.8758 North 408 470 39,000  Level Miami Center
Mon 07:38:02 AM 28.0611 -78.8589 North 408 470 39,000  Level Miami Center
Mon 07:39:02 AM 28.1764 -78.8422 North 408 470 39,000  Level Miami Center
Mon 07:40:02 AM 28.2914 -78.8253 North 408 470 39,000  Level Miami Center
Mon 07:41:02 AM 28.4064 -78.8083 North 408 470 39,000  Level Miami Center
Mon 07:42:02 AM 28.5192 -78.7914 North 408 470 39,000  Level Miami Center
Mon 07:43:02 AM 28.6322 -78.7744 North 408 470 39,000  Level Miami Center
Mon 07:44:02 AM 28.7514 -78.7600 North 413 475 39,000  Level Miami Center
Mon 07:45:02 AM 28.8683 -78.7431 North 418 481 39,000  Level Miami Center
Mon 07:46:02 AM 28.9878 -78.7236 North 423 487 39,000  Level Miami Center
Mon 07:47:02 AM 29.1025 -78.7067 North 423 487 39,000  Level Miami Center
Mon 07:48:02 AM 29.2258 -78.6969 North 418 481 39,000  Level Miami Center
Mon 07:49:02 AM 29.3347 -78.6725 11° North 418 481 39,000  Level Miami Center
Mon 07:50:02 AM 29.4517 -78.6553 North 418 481 39,000  Level Miami Center
Mon 07:51:02 AM 29.5708 -78.6406 North 425 489 39,000  Level Miami Center
Mon 07:52:02 AM 29.6836 -78.6233 North 420 483 39,000  Level Miami Center
Mon 07:53:29 AM 29.8431 -78.5875 11° North 420 483 39,000  Level Jacksonville Center
Mon 07:54:29 AM 29.9617 -78.5703 North 420 483 39,000  Level Jacksonville Center
Mon 07:55:29 AM 30.0842 -78.5575 North 427 491 39,000  Level Jacksonville Center
Mon 07:56:29 AM 30.1961 -78.5358 North 421 484 39,000  Level Jacksonville Center
Mon 07:57:29 AM 30.3125 -78.5208 North 415 478 39,000  Level Jacksonville Center
Mon 07:58:29 AM 30.4269 -78.5036 North 415 478 39,000  Level Jacksonville Center
Mon 07:59:29 AM 30.5411 -78.4864 North 420 483 39,000  Level Jacksonville Center
Mon 08:00:29 AM 30.6614 -78.4664 North 425 489 39,000  Level Jacksonville Center
Mon 08:01:29 AM 30.7819 -78.4508 North 429 494 39,000  Level Jacksonville Center
Mon 08:02:29 AM 30.8981 -78.4308 North 424 488 39,000  Level Jacksonville Center
Mon 08:03:29 AM 31.0144 -78.4133 North 423 487 39,000  Level Jacksonville Center
Mon 08:04:29 AM 31.1306 -78.3958 North 423 487 39,000  Level Jacksonville Center
Mon 08:05:29 AM 31.2489 -78.3778 North 423 487 39,000  Level Jacksonville Center
Mon 08:06:29 AM 31.3672 -78.3575 North 423 487 39,000  Level Jacksonville Center
Mon 08:07:29 AM 31.4858 -78.3419 North 423 487 39,000  Level Jacksonville Center
Mon 08:08:29 AM 31.6061 -78.3217 North 423 487 39,000  Level Jacksonville Center
Mon 08:09:29 AM 31.7222 -78.3011 North 423 487 39,000  Level Jacksonville Center
Mon 08:10:29 AM 31.8386 -78.2856 North 423 487 39,000  Level Jacksonville Center
Mon 08:11:29 AM 31.9569 -78.2675 North 423 487 39,000  Level Jacksonville Center
Mon 08:12:29 AM 32.0753 -78.2492 North 428 493 39,000  Level Jacksonville Center
Mon 08:13:29 AM 32.1953 -78.2258 North 423 487 39,000  Level Jacksonville Center
Mon 08:14:29 AM 32.3156 -78.2025 North 423 487 39,000  Level Jacksonville Center
Mon 08:15:29 AM 32.4342 -78.1892 North 423 487 39,000  Level Jacksonville Center
Mon 08:16:29 AM 32.5544 -78.1706 North 423 487 39,000  Level Jacksonville Center
Mon 08:17:29 AM 32.6744 -78.1469 North 423 487 39,000  Level Jacksonville Center
Mon 08:18:29 AM 32.7950 -78.1308 North 423 487 39,000  Level Jacksonville Center
Mon 08:19:29 AM 32.9111 -78.1097 North 423 487 39,000  Level Jacksonville Center
Mon 08:20:29 AM 33.0314 -78.0886 North 423 487 39,000  Level Jacksonville Center
Mon 08:21:29 AM 33.1517 -78.0722 North 423 487 39,000  Level Jacksonville Center
Mon 08:23:22 AM 33.3814 -78.0361 North 437 503 39,000  Level Washington Center
Mon 08:24:22 AM 33.4986 -78.0147 North 431 496 39,000  Level Washington Center
Mon 08:25:21 AM 33.6136 -77.9981 North 426 490 39,000  Level Washington Center
Mon 08:26:22 AM 33.7328 -77.9789 North 426 490 39,000  Level Washington Center
Mon 08:27:22 AM 33.8439 -77.9597 North 426 490 39,000 252 Level Washington Center
Mon 08:28:21 AM 33.9694 -77.9406 North 426 490 39,500  Climbing Washington Center
Mon 08:29:22 AM 34.0761 -77.9236 North 431 496 39,000 -248 Descending Washington Center
Mon 08:30:22 AM 34.2039 -77.8972 10° North 426 490 39,000  Level Washington Center
Mon 08:31:23 AM 34.3106 -77.8825 North 426 490 39,000  Level Washington Center
Mon 08:32:21 AM 34.4278 -77.8631 North 426 490 39,000  Level Washington Center
Mon 08:33:22 AM 34.5428 -77.8436 North 426 490 39,000  Level Washington Center
Mon 08:34:23 AM 34.6581 -77.8242 North 421 484 39,000  Level Washington Center
Mon 08:35:23 AM 34.7731 -77.8044 North 421 484 39,000  Level Washington Center
Mon 08:36:21 AM 34.8989 -77.7775 10° North 416 479 39,000  Level Washington Center
Mon 08:37:22 AM 35.0161 -77.7603 North 416 479 39,000  Level Washington Center
Mon 08:38:22 AM 35.1331 -77.7406 North 416 479 39,000  Level Washington Center
Mon 08:39:22 AM 35.2400 -77.7206 North 416 479 39,000  Level Washington Center
Mon 08:40:23 AM 35.3550 -77.7008 North 416 479 39,000  Level Washington Center
Mon 08:41:23 AM 35.4703 -77.6808 North 416 479 39,000  Level Washington Center
Mon 08:42:21 AM 35.5875 -77.6608 North 416 479 39,000  Level Washington Center
Mon 08:43:21 AM 35.7025 -77.6408 North 416 479 39,000  Level Washington Center
Mon 08:44:22 AM 35.8175 -77.6208 North 416 479 39,000 -197 Level Washington Center
Mon 08:45:23 AM 35.9325 -77.6031 North 416 479 38,600 -706 Descending Washington Center
Mon 08:46:21 AM 36.0456 -77.5831 North 411 473 37,600 -814 Descending Washington Center
Mon 08:47:21 AM 36.1628 -77.5628 North 411 473 37,000 -942 Descending Washington Center
Mon 08:48:22 AM 36.2806 -77.5117 19° North 418 481 35,700 -1,100 Descending Washington Center
Mon 08:49:21 AM 36.3958 -77.4808 12° North 424 488 34,800 -1,008 Descending Washington Center
Mon 08:50:21 AM 36.5233 -77.4633 North 419 482 33,700 -1,041 Descending Washington Center
Mon 08:51:22 AM 36.6444 -77.4456 North 419 482 32,700 -934 Descending Washington Center
Mon 08:52:23 AM 36.7636 -77.4275 North 430 495 31,800 -958 Descending Washington Center
Mon 08:53:21 AM 36.8872 -77.4097 North 430 495 30,800 -1,068 Descending Washington Center
Mon 08:54:21 AM 37.0083 -77.3942 North 430 495 29,700 -1,041 Descending Washington Center
Mon 08:55:22 AM 37.1256 -77.3761 North 430 495 28,700 -984 Descending Washington Center
Mon 08:56:23 AM 37.2403 -77.3606 North 424 488 27,700 -1,041 Descending Washington Center
Mon 08:57:23 AM 37.3492 -77.3447 North 405 466 26,600 -950 Descending Washington Center
Mon 08:58:23 AM 37.4369 -77.3311 North 400 460 25,800 -966 Descending Washington Center
Mon 08:59:21 AM 37.5561 -77.3103 North 390 449 24,700 -1,373 Descending Washington Center
Mon 09:00:21 AM 37.6628 -77.2892 North 390 449 23,100 -843 Descending Washington Center
Mon 09:01:22 AM 37.7675 -77.2653 10° North 385 443 23,000 -50 Descending Washington Center
Mon 09:02:22 AM 37.8700 -77.2439 North 380 437 23,000 -298 Level Washington Center
Mon 09:03:23 AM 37.9767 -77.2225 North 380 437 22,400 -1,412 Descending Washington Center
Mon 09:04:21 AM 38.0853 -77.2011 North 369 425 20,200 -1,815 Descending Washington Center
Mon 09:05:22 AM 38.1814 -77.1819 North 362 417 18,800 -1,190 Descending Washington Center
Mon 09:06:22 AM 38.2653 -77.1625 10° North 350 403 17,800 -1,785 Descending Washington Center
Mon 09:07:23 AM 38.3675 -77.1408 North 341 392 15,200 -2,017 Descending Washington Center
Mon 09:08:21 AM 38.4436 -77.0656 38° Northeast 329 379 13,800 -1,576 Descending Washington Center
Mon 09:09:21 AM 38.5133 -76.9794 44° Northeast 336 387 12,100 -1,041 Descending Washington Center
Mon 09:10:22 AM 38.5769 -76.9036 43° Northeast 328 377 11,700 -942 Descending Washington Center
Mon 09:11:22 AM 38.6381 -76.8303 43° Northeast 313 360 10,200 -1,240 Descending Washington Center
Mon 09:12:23 AM 38.6950 -76.7594 44° Northeast 298 343 9,200 -966 Descending Washington Center
Mon 09:13:20 AM 38.7356 -76.6775 58° Northeast 278 320 8,300 -1,250 Descending Washington Center
Mon 09:14:47 AM 38.8000 -76.5500 57° Northeast 272 313 6,200 -1,297 Descending Potomac TRACON
Mon 09:15:48 AM 38.8500 -76.5000 38° Northeast 263 303 5,100 -1,096 Descending Potomac TRACON
Mon 09:16:42 AM 38.9167 -76.5000 360° North 255 293 4,100 -611 Descending Potomac TRACON
Mon 09:17:36 AM 38.9667 -76.5167 345° North 216 249 4,000 -263 Descending Potomac TRACON
Mon 09:18:36 AM 39.0167 -76.5333 345° North 172 198 3,600 -595 Descending Potomac TRACON
Mon 09:19:37 AM 39.0667 -76.5667 333° Northwest 175 201 2,800 -835 Descending Potomac TRACON
Mon 09:20:31 AM 39.1000 -76.6000 322° Northwest 153 176 2,000 -800 Descending Potomac TRACON
Mon 09:21:37 AM 39.1167 -76.6333 303° West 122 140 1,200 -750 Descending Potomac TRACON
Mon 09:22:31 AM 39.1500 -76.6500 339° North 128 147 500 -778 Descending Potomac TRACON
Mon 09:24:00 AM 39.1667 -76.6667 339° North  Level FlightAware Approximate
Mon 09:31:00 AM 39.1754 -76.6683 339° North  Level Estimated
Mon 09:32:00 AM 39.1754 -76.6683 339° North  Level Estimated
Mon 09:33:00 AM 39.1754 -76.6683 339° North  Level Estimated
Mon 09:34:00 AM 39.1754 -76.6683 339° North  Level Estimated

Login

Don't have an account? Register now (free) for customized features, flight alerts, and more!